Terminal Aerodrome Forecast
Issued by NWS

Home | Current Version | Previous Version | Text Only | Print | Product List | Glossary On
Versions: 1 2 3 4 5 6 7 8 9 10 11 12 13 14
000
FTUS46 KMTR 300527
TAFSJC
TAF
KSJC 300527Z 3006/3106 30010KT P6SM SCT150
     FM300900 30006KT 6SM -DZ BR BKN008 OVC015
     FM301600 30005KT P6SM SCT015 SCT150
     FM301900 31020G27KT P6SM FEW020 SCT150
     FM310400 31012KT P6SM FEW020 SCT250=

USA.gov is the U.S. government's official web portal to all federal, state and local government web resources and services.